createdAt,value
2019-05-09T00:01:39.468Z,95.80
2019-05-09T00:04:13.953Z,96.10
2019-05-09T00:06:46.950Z,96.17
2019-05-09T00:09:20.151Z,96.17
2019-05-09T00:11:53.163Z,96.35
2019-05-09T00:14:25.994Z,96.73
2019-05-09T00:16:58.968Z,96.73
2019-05-09T00:19:33.353Z,96.44
2019-05-09T00:22:06.510Z,96.44
2019-05-09T00:24:39.364Z,96.29
2019-05-09T00:27:14.138Z,95.99
2019-05-09T00:29:47.259Z,96.29
2019-05-09T00:32:20.636Z,96.29
2019-05-09T00:34:53.832Z,96.38
2019-05-09T00:37:26.736Z,96.68
2019-05-09T00:39:59.678Z,96.68
2019-05-09T00:42:33.360Z,96.81
2019-05-09T00:45:06.478Z,97.50
2019-05-09T00:47:39.696Z,98.10
2019-05-09T00:50:13.242Z,98.21
2019-05-09T00:52:46.142Z,98.24
2019-05-09T00:55:19.002Z,98.24
2019-05-09T00:57:53.437Z,98.46
2019-05-09T01:00:26.545Z,98.70
2019-05-09T01:02:59.786Z,98.91
2019-05-09T01:05:35.476Z,98.91
2019-05-09T01:08:08.485Z,99.86
2019-05-09T01:10:43.577Z,99.82
2019-05-09T01:13:16.148Z,99.77
2019-05-09T01:15:49.317Z,99.96
2019-05-09T01:18:23.731Z,99.78
2019-05-09T01:20:56.961Z,99.88
2019-05-09T01:23:29.941Z,99.88
2019-05-09T01:26:03.861Z,100.00
2019-05-09T01:28:37.370Z,100.00
2019-05-09T01:31:10.310Z,100.00
2019-05-09T01:33:44.000Z,99.85
2019-05-09T01:36:16.944Z,99.93
2019-05-09T01:38:49.938Z,99.78
2019-05-09T01:41:30.315Z,100.00
2019-05-09T01:43:57.952Z,100.00
2019-05-09T01:46:30.823Z,100.00
2019-05-09T01:49:04.093Z,100.00
2019-05-09T01:51:36.965Z,100.00
2019-05-09T01:54:09.885Z,99.93
2019-05-09T01:56:43.203Z,99.78
2019-05-09T01:59:16.193Z,99.79
2019-05-09T02:01:49.058Z,99.71
2019-05-09T02:04:24.190Z,99.80
2019-05-09T02:06:56.990Z,99.39
2019-05-09T02:09:29.934Z,98.74
2019-05-09T02:12:03.911Z,98.74
2019-05-09T02:14:37.243Z,98.61
2019-05-09T02:17:10.109Z,98.46
2019-05-09T02:19:43.915Z,98.40
2019-05-09T02:22:17.266Z,97.98
2019-05-09T02:24:50.212Z,97.69
2019-05-09T02:27:23.825Z,97.81
2019-05-09T02:29:56.814Z,97.84
2019-05-09T02:32:30.243Z,98.03
2019-05-09T02:35:04.886Z,97.97
2019-05-09T02:37:38.865Z,97.92
2019-05-09T02:40:12.456Z,97.79
2019-05-09T02:42:48.721Z,97.83
2019-05-09T02:45:20.421Z,98.28
2019-05-09T02:47:53.366Z,98.28
2019-05-09T02:50:28.511Z,98.03
2019-05-09T02:53:00.929Z,97.89
2019-05-09T02:55:34.253Z,97.90
2019-05-09T02:58:08.251Z,97.70
2019-05-09T03:00:41.424Z,97.70
2019-05-09T03:03:14.289Z,98.38
2019-05-09T03:05:48.756Z,98.38
2019-05-09T03:08:21.925Z,98.21
2019-05-09T03:10:54.895Z,98.07
2019-05-09T03:13:29.098Z,98.05
2019-05-09T03:16:02.292Z,98.13
2019-05-09T03:18:35.154Z,98.05
2019-05-09T03:21:09.188Z,97.98
2019-05-09T03:23:42.306Z,97.71
2019-05-09T03:26:15.277Z,97.47
2019-05-09T03:28:49.271Z,97.54
2019-05-09T03:31:22.677Z,97.55
2019-05-09T03:33:59.152Z,97.24
2019-05-09T03:36:30.267Z,97.43
2019-05-09T03:39:04.985Z,97.07
2019-05-09T03:41:39.494Z,97.20
2019-05-09T03:44:12.685Z,97.19
2019-05-09T03:46:47.666Z,97.24
2019-05-09T03:49:20.221Z,97.07
2019-05-09T03:51:53.146Z,96.94
2019-05-09T03:54:28.308Z,96.57
2019-05-09T03:57:00.884Z,96.65
2019-05-09T03:59:33.745Z,96.46
2019-05-09T04:02:09.837Z,96.62
2019-05-09T04:04:42.009Z,96.80
2019-05-09T04:07:14.926Z,96.95
2019-05-09T04:09:48.044Z,97.01
2019-05-09T04:12:21.277Z,96.96
2019-05-09T04:14:54.410Z,96.81
2019-05-09T04:17:28.087Z,96.82
2019-05-09T04:20:00.986Z,96.75
2019-05-09T04:22:33.896Z,96.46
2019-05-09T04:25:07.990Z,96.08
2019-05-09T04:27:41.029Z,95.22
2019-05-09T04:30:13.969Z,95.22
2019-05-09T04:32:48.160Z,95.48
2019-05-09T04:35:21.432Z,95.34
2019-05-09T04:37:54.356Z,94.94
2019-05-09T04:40:31.786Z,94.89
2019-05-09T04:43:11.951Z,94.44
2019-05-09T04:45:38.793Z,93.90
2019-05-09T04:48:13.192Z,93.90
2019-05-09T04:50:47.824Z,94.17
2019-05-09T04:53:21.260Z,94.18
2019-05-09T04:55:54.172Z,93.79
2019-05-09T04:58:27.447Z,93.75
2019-05-09T05:01:00.617Z,94.28
2019-05-09T05:03:33.599Z,94.64
2019-05-09T05:06:07.682Z,94.61
2019-05-09T05:08:40.562Z,94.76
2019-05-09T05:11:13.419Z,94.19
2019-05-09T05:13:48.147Z,94.19
2019-05-09T05:16:21.390Z,93.89
2019-05-09T05:18:54.290Z,93.89
2019-05-09T05:21:28.628Z,94.03
2019-05-09T05:24:01.656Z,94.03
2019-05-09T05:26:34.686Z,93.37
2019-05-09T05:29:08.526Z,93.12
2019-05-09T05:31:41.628Z,93.62
2019-05-09T05:34:14.773Z,93.62
2019-05-09T05:36:47.776Z,93.65
2019-05-09T05:39:20.717Z,93.65
2019-05-09T05:41:53.982Z,93.72
2019-05-09T05:44:28.278Z,93.86
2019-05-09T05:47:01.485Z,93.66
2019-05-09T05:49:34.779Z,93.22
2019-05-09T05:52:08.203Z,93.22
2019-05-09T05:54:41.975Z,93.32
2019-05-09T05:57:17.547Z,92.82
2019-05-09T05:59:49.806Z,93.12
2019-05-09T06:02:23.118Z,93.32
2019-05-09T06:04:57.859Z,92.97
2019-05-09T06:07:31.025Z,92.59
2019-05-09T06:10:04.629Z,92.09
2019-05-09T06:12:38.204Z,91.82
2019-05-09T06:15:12.051Z,90.96
2019-05-09T06:17:45.111Z,88.95
2019-05-09T06:20:18.267Z,88.95
2019-05-09T06:22:51.164Z,87.85
2019-05-09T06:25:24.559Z,87.98
2019-05-09T06:27:58.383Z,87.81
2019-05-09T06:30:31.967Z,86.96
2019-05-09T06:33:05.426Z,86.96
2019-05-09T06:35:38.473Z,87.77
2019-05-09T06:38:11.512Z,87.77
2019-05-09T06:40:44.786Z,88.44
2019-05-09T06:43:18.371Z,88.73
2019-05-09T06:45:51.483Z,88.73
2019-05-09T06:48:24.391Z,88.97
2019-05-09T06:50:57.744Z,85.99
2019-05-09T06:53:30.706Z,85.99
2019-05-09T06:56:03.988Z,85.67
2019-05-09T06:58:38.363Z,85.53
2019-05-09T07:01:11.786Z,84.92
2019-05-09T07:03:44.851Z,82.79
2019-05-09T07:06:17.905Z,82.45
2019-05-09T07:08:50.938Z,82.18
2019-05-09T07:11:23.906Z,82.18
2019-05-09T07:13:57.882Z,80.14
2019-05-09T07:16:31.026Z,79.16
2019-05-09T07:19:04.007Z,78.81
2019-05-09T07:21:37.558Z,80.53
2019-05-09T07:24:10.600Z,80.53
2019-05-09T07:26:43.546Z,81.78
2019-05-09T07:29:17.874Z,81.78
2019-05-09T07:31:51.158Z,81.37
2019-05-09T07:34:24.197Z,81.74
2019-05-09T07:36:58.170Z,80.15
2019-05-09T07:39:31.706Z,80.15
2019-05-09T07:42:04.706Z,78.46
2019-05-09T07:44:46.263Z,80.38
2019-05-09T07:47:12.607Z,82.09
2019-05-09T07:49:48.079Z,77.79
2019-05-09T07:52:20.552Z,78.48
2019-05-09T07:54:53.423Z,78.37
2019-05-09T07:57:28.551Z,76.36
2019-05-09T08:00:01.323Z,76.36
2019-05-09T08:02:34.304Z,77.66
2019-05-09T08:05:08.581Z,76.81
2019-05-09T08:07:41.700Z,73.48
2019-05-09T08:10:14.809Z,63.48
2019-05-09T08:12:48.329Z,63.48
2019-05-09T08:15:21.451Z,56.34
2019-05-09T08:17:54.354Z,56.34
2019-05-09T08:20:27.906Z,57.63
2019-05-09T08:23:02.442Z,58.96
2019-05-09T08:25:38.061Z,58.52
2019-05-09T08:28:10.490Z,50.80
2019-05-09T08:30:43.821Z,47.93
2019-05-09T08:33:18.376Z,47.81
2019-05-09T08:35:52.687Z,52.80
2019-05-09T08:38:27.973Z,51.63
2019-05-09T08:41:00.599Z,50.84
2019-05-09T08:43:34.631Z,50.84
2019-05-09T08:46:08.842Z,53.32
2019-05-09T08:48:41.872Z,48.96
2019-05-09T08:51:14.894Z,48.95
2019-05-09T08:53:48.319Z,48.29
2019-05-09T08:56:21.416Z,54.33
2019-05-09T08:58:57.937Z,59.72
2019-05-09T09:01:47.627Z,59.53
2019-05-09T09:04:04.053Z,63.06
2019-05-09T09:06:38.034Z,63.64
2019-05-09T09:09:10.990Z,60.49
2019-05-09T09:11:44.453Z,63.91
2019-05-09T09:14:18.471Z,59.17
2019-05-09T09:16:51.755Z,59.06
2019-05-09T09:19:24.895Z,56.11
2019-05-09T09:22:00.538Z,58.95
2019-05-09T09:24:32.434Z,56.12
2019-05-09T09:27:07.515Z,46.25
2019-05-09T09:29:40.099Z,44.60
2019-05-09T09:32:13.084Z,47.88
2019-05-09T09:34:48.476Z,47.88
2019-05-09T09:37:22.030Z,47.78
2019-05-09T09:39:54.987Z,42.10
2019-05-09T09:42:28.402Z,40.96
2019-05-09T09:45:02.311Z,43.14
2019-05-09T09:47:38.860Z,39.92
2019-05-09T09:50:10.512Z,41.63
2019-05-09T09:52:43.523Z,42.43
2019-05-09T09:55:18.490Z,39.12
2019-05-09T09:57:51.762Z,49.43
2019-05-09T10:00:38.227Z,49.43
2019-05-09T10:03:11.469Z,44.05
2019-05-09T10:05:44.553Z,46.71
2019-05-09T10:08:18.346Z,44.83
2019-05-09T10:10:51.866Z,44.72
2019-05-09T10:13:24.795Z,45.84
2019-05-09T10:15:58.847Z,44.04
2019-05-09T10:18:31.866Z,42.83
2019-05-09T10:21:04.982Z,40.43
2019-05-09T10:23:38.027Z,38.78
2019-05-09T10:26:11.072Z,43.12
2019-05-09T10:28:45.482Z,43.81
2019-05-09T10:31:19.072Z,45.86
2019-05-09T10:33:51.959Z,52.05
2019-05-09T10:36:24.880Z,52.05
2019-05-09T10:38:58.573Z,54.14
2019-05-09T10:41:31.566Z,47.91
2019-05-09T10:44:04.518Z,47.91
2019-05-09T10:46:51.422Z,44.95
2019-05-09T10:49:12.228Z,43.07
2019-05-09T10:51:45.167Z,46.57
2019-05-09T10:54:18.653Z,46.03
2019-05-09T10:56:51.968Z,43.89
2019-05-09T10:59:24.980Z,43.52
2019-05-09T11:01:58.271Z,45.19
2019-05-09T11:04:31.200Z,42.33
2019-05-09T11:07:04.226Z,40.04
2019-05-09T11:09:39.076Z,39.69
2019-05-09T11:12:12.224Z,36.04
2019-05-09T11:14:45.094Z,40.89
2019-05-09T11:17:21.599Z,41.32
2019-05-09T11:19:53.099Z,39.48
2019-05-09T11:22:28.907Z,37.67
2019-05-09T11:25:00.971Z,41.88
2019-05-09T11:27:33.856Z,42.96
2019-05-09T11:30:08.391Z,42.03
2019-05-09T11:32:41.408Z,36.29
2019-05-09T11:35:14.377Z,40.14
2019-05-09T11:37:48.066Z,40.81
2019-05-09T11:40:21.031Z,44.17
2019-05-09T11:42:53.907Z,44.24
2019-05-09T11:48:00.660Z,46.05
2019-05-09T11:50:33.557Z,41.42
2019-05-09T11:53:08.829Z,39.80
2019-05-09T11:55:43.326Z,39.21
2019-05-09T11:58:18.047Z,37.93
2019-05-09T12:00:50.392Z,40.35
2019-05-09T12:03:23.604Z,45.01
2019-05-09T12:05:58.298Z,48.52
2019-05-09T12:08:31.011Z,49.38
2019-05-09T12:11:03.907Z,50.67
2019-05-09T12:13:38.047Z,53.67
2019-05-09T12:16:10.913Z,54.11
2019-05-09T12:18:43.882Z,54.11
2019-05-09T12:21:19.136Z,57.57
2019-05-09T12:23:51.449Z,56.68
2019-05-09T12:26:24.267Z,55.32
2019-05-09T12:28:57.989Z,54.68
2019-05-09T12:31:30.998Z,54.68
2019-05-09T12:34:03.977Z,54.93
2019-05-09T12:36:39.864Z,46.89
2019-05-09T12:39:11.685Z,46.89
2019-05-09T12:41:44.530Z,41.27
2019-05-09T12:44:18.291Z,41.27
2019-05-09T12:46:52.005Z,40.75
2019-05-09T12:49:25.147Z,43.28
2019-05-09T12:51:58.799Z,43.28
2019-05-09T12:54:31.881Z,44.48
2019-05-09T12:57:04.707Z,46.02
2019-05-09T12:59:46.422Z,46.97
2019-05-09T13:02:12.163Z,46.97
2019-05-09T13:04:47.498Z,49.28
2019-05-09T13:07:20.053Z,51.50
2019-05-09T13:09:53.059Z,51.42
2019-05-09T13:12:28.932Z,52.40
2019-05-09T13:15:00.541Z,55.03
2019-05-09T13:17:33.366Z,53.37
2019-05-09T13:20:07.954Z,53.37
2019-05-09T13:22:40.979Z,54.57
2019-05-09T13:25:14.050Z,55.60
2019-05-09T13:27:47.890Z,54.65
2019-05-09T13:30:21.145Z,56.30
2019-05-09T13:32:53.967Z,54.76
2019-05-09T13:35:27.784Z,56.21
2019-05-09T13:38:00.784Z,54.06
2019-05-09T13:40:33.741Z,53.69
2019-05-09T13:43:08.970Z,54.37
2019-05-09T13:45:41.238Z,51.13
2019-05-09T13:48:28.131Z,51.13
2019-05-09T13:50:48.680Z,49.92
2019-05-09T13:53:21.521Z,49.92
2019-05-09T13:55:55.623Z,49.33
2019-05-09T13:58:28.937Z,51.05
2019-05-09T14:01:02.663Z,51.05
2019-05-09T14:03:35.699Z,54.28
2019-05-09T14:06:09.144Z,54.96
2019-05-09T14:08:42.070Z,57.62
2019-05-09T14:11:14.984Z,57.62
2019-05-09T14:13:48.801Z,60.15
2019-05-09T14:16:22.540Z,60.15
2019-05-09T14:18:58.854Z,62.24
2019-05-09T14:21:30.238Z,62.24
2019-05-09T14:24:14.058Z,61.01
2019-05-09T14:26:37.797Z,59.22
2019-05-09T14:29:12.955Z,56.62
2019-05-09T14:31:45.309Z,56.59
2019-05-09T14:34:19.675Z,56.59
2019-05-09T14:36:52.793Z,57.89
2019-05-09T14:39:27.683Z,57.95
2019-05-09T14:42:00.325Z,60.68
2019-05-09T14:44:33.151Z,62.51
2019-05-09T14:47:08.093Z,67.45
2019-05-09T14:49:44.501Z,67.45
2019-05-09T14:52:15.247Z,67.28
2019-05-09T14:54:48.393Z,70.66
2019-05-09T14:57:21.408Z,74.82
2019-05-09T14:59:54.242Z,74.82
2019-05-09T15:02:27.124Z,75.65
2019-05-09T15:05:00.027Z,82.19
2019-05-09T15:07:33.040Z,82.19
2019-05-09T15:10:08.641Z,82.61
2019-05-09T15:12:41.021Z,81.79
2019-05-09T15:15:14.099Z,82.94
2019-05-09T15:17:49.294Z,82.94
2019-05-09T15:20:21.683Z,83.94
2019-05-09T15:22:54.566Z,81.03
2019-05-09T15:25:28.306Z,81.03
2019-05-09T15:28:01.264Z,82.20
2019-05-09T15:30:34.106Z,80.64
2019-05-09T15:33:08.373Z,82.13
2019-05-09T15:35:41.423Z,83.39
2019-05-09T15:38:14.582Z,84.55
2019-05-09T15:40:48.266Z,85.03
2019-05-09T15:43:21.298Z,85.03
2019-05-09T15:45:54.137Z,84.93
2019-05-09T15:48:27.571Z,85.20
2019-05-09T15:51:00.613Z,82.65
2019-05-09T15:53:33.505Z,82.04
2019-05-09T15:56:08.028Z,80.25
2019-05-09T15:58:40.979Z,80.09
2019-05-09T16:01:14.163Z,77.24
2019-05-09T16:03:48.527Z,74.91
2019-05-09T16:06:21.906Z,70.94
2019-05-09T16:08:54.856Z,71.49
2019-05-09T16:11:28.586Z,69.78
2019-05-09T16:14:03.176Z,71.28
2019-05-09T16:16:38.553Z,70.91
2019-05-09T16:19:11.493Z,71.62
2019-05-09T16:21:44.362Z,71.04
2019-05-09T16:24:18.732Z,71.04
2019-05-09T16:26:51.870Z,70.48
2019-05-09T16:29:25.108Z,68.65
2019-05-09T16:31:58.279Z,68.29
2019-05-09T16:34:31.183Z,70.32
2019-05-09T16:37:04.275Z,71.82
2019-05-09T16:39:37.969Z,75.97
2019-05-09T16:42:11.103Z,75.97
2019-05-09T16:44:44.059Z,74.93
2019-05-09T16:47:21.603Z,76.64
2019-05-09T16:49:51.520Z,77.63
2019-05-09T16:52:24.438Z,76.80
2019-05-09T16:54:58.502Z,76.83
2019-05-09T16:57:31.618Z,77.33
2019-05-09T17:00:07.917Z,76.65
2019-05-09T17:02:40.320Z,76.65
2019-05-09T17:05:13.511Z,77.14
2019-05-09T17:07:47.646Z,77.14
2019-05-09T17:10:21.338Z,76.55
2019-05-09T17:12:54.265Z,77.93
2019-05-09T17:15:29.187Z,79.82
2019-05-09T17:18:01.989Z,79.82
2019-05-09T17:20:35.006Z,79.87
2019-05-09T17:23:13.765Z,79.53
2019-05-09T17:25:42.590Z,79.30
2019-05-09T17:28:17.666Z,79.78
2019-05-09T17:30:50.206Z,79.39
2019-05-09T17:33:23.197Z,79.39
2019-05-09T17:35:57.753Z,79.49
2019-05-09T17:38:30.903Z,79.10
2019-05-09T17:41:04.374Z,78.00
2019-05-09T17:43:38.371Z,77.02
2019-05-09T17:46:11.496Z,77.46
2019-05-09T17:48:44.566Z,76.88
2019-05-09T17:51:32.343Z,77.07
2019-05-09T17:53:52.674Z,76.85
2019-05-09T17:56:25.690Z,76.57
2019-05-09T17:58:58.647Z,76.86
2019-05-09T18:01:31.743Z,77.59
2019-05-09T18:04:04.922Z,78.12
2019-05-09T18:06:38.169Z,77.75
2019-05-09T18:09:11.289Z,77.75
2019-05-09T18:11:44.282Z,78.58
2019-05-09T18:14:18.470Z,78.58
2019-05-09T18:16:51.930Z,79.67
2019-05-09T18:19:24.929Z,79.67
2019-05-09T18:21:58.047Z,79.87
2019-05-09T18:24:31.385Z,81.71
2019-05-09T18:27:04.796Z,82.26
2019-05-09T18:29:38.154Z,82.06
2019-05-09T18:32:11.305Z,80.92
2019-05-09T18:34:44.268Z,80.92
2019-05-09T18:37:17.407Z,80.62
2019-05-09T18:39:50.360Z,80.11
2019-05-09T18:42:23.318Z,79.46
2019-05-09T18:44:56.601Z,79.46
2019-05-09T18:47:29.934Z,79.96
2019-05-09T18:50:02.959Z,80.11
2019-05-09T18:52:35.992Z,80.07
2019-05-09T18:55:09.729Z,80.43
2019-05-09T18:57:42.707Z,80.78
2019-05-09T19:00:17.202Z,81.63
2019-05-09T19:02:50.565Z,82.85
2019-05-09T19:05:23.514Z,83.79
2019-05-09T19:07:56.892Z,82.59
2019-05-09T19:10:29.736Z,82.89
2019-05-09T19:13:02.725Z,84.67
2019-05-09T19:15:35.780Z,84.67
2019-05-09T19:18:08.825Z,85.89
2019-05-09T19:20:41.900Z,85.89
2019-05-09T19:23:14.852Z,86.46
2019-05-09T19:25:47.726Z,87.55
2019-05-09T19:28:23.974Z,88.35
2019-05-09T19:30:55.628Z,88.35
2019-05-09T19:33:29.291Z,87.99
2019-05-09T19:36:02.253Z,87.72
2019-05-09T19:38:35.185Z,87.60
2019-05-09T19:41:08.413Z,88.09
2019-05-09T19:43:41.354Z,87.90
2019-05-09T19:46:14.941Z,87.53
2019-05-09T19:48:47.934Z,87.19
2019-05-09T19:51:20.920Z,87.19
2019-05-09T19:53:54.546Z,87.90
2019-05-09T19:56:27.604Z,88.10
2019-05-09T19:59:00.527Z,89.29
2019-05-09T20:01:33.483Z,89.49
2019-05-09T20:04:06.651Z,89.49
2019-05-09T20:06:39.864Z,90.26
2019-05-09T20:09:12.849Z,90.26
2019-05-09T20:11:45.741Z,90.17
2019-05-09T20:14:18.889Z,90.18
2019-05-09T20:16:53.896Z,90.58
2019-05-09T20:19:26.844Z,90.85
2019-05-09T20:22:00.168Z,91.68
2019-05-09T20:24:33.271Z,91.68
2019-05-09T20:27:06.229Z,91.85
2019-05-09T20:29:39.345Z,92.54
2019-05-09T20:32:12.366Z,93.22
2019-05-09T20:34:45.302Z,93.22
2019-05-09T20:37:18.410Z,93.38
2019-05-09T20:39:51.385Z,93.53
2019-05-09T20:42:24.441Z,93.59
2019-05-09T20:44:57.432Z,93.57
2019-05-09T20:47:30.359Z,93.58
2019-05-09T20:50:03.697Z,93.85
2019-05-09T20:52:36.762Z,94.28
2019-05-09T20:55:10.244Z,94.41
2019-05-09T20:57:43.249Z,94.67
2019-05-09T21:00:17.848Z,94.67
2019-05-09T21:02:50.764Z,94.50
2019-05-09T21:05:23.968Z,94.27
2019-05-09T21:07:56.855Z,94.27
2019-05-09T21:10:29.805Z,94.70
2019-05-09T21:13:02.873Z,94.87
2019-05-09T21:15:35.952Z,95.96
2019-05-09T21:18:08.997Z,95.64
2019-05-09T21:20:42.437Z,95.73
2019-05-09T21:23:24.382Z,95.73
2019-05-09T21:25:50.027Z,95.90
2019-05-09T21:28:23.091Z,95.71
2019-05-09T21:30:56.094Z,95.23
2019-05-09T21:33:29.098Z,95.23
2019-05-09T21:36:02.132Z,95.02
2019-05-09T21:38:35.072Z,94.97
2019-05-09T21:41:08.082Z,94.97
2019-05-09T21:43:41.075Z,94.54
2019-05-09T21:46:14.110Z,94.62
2019-05-09T21:48:47.019Z,94.60
2019-05-09T21:51:19.958Z,94.44
2019-05-09T21:53:52.858Z,94.16
2019-05-09T21:56:26.373Z,94.36
2019-05-09T21:58:59.395Z,94.36
2019-05-09T22:01:32.479Z,93.54
2019-05-09T22:04:05.605Z,92.25
2019-05-09T22:06:38.692Z,92.08
2019-05-09T22:09:11.751Z,92.42
2019-05-09T22:11:44.873Z,93.58
2019-05-09T22:14:17.865Z,93.58
2019-05-09T22:16:52.461Z,94.70
2019-05-09T22:19:25.375Z,96.15
2019-05-09T22:21:58.335Z,96.15
2019-05-09T22:24:31.308Z,96.45
2019-05-09T22:27:04.585Z,97.60
2019-05-09T22:29:37.636Z,98.53
2019-05-09T22:32:10.655Z,98.53
2019-05-09T22:34:43.575Z,98.42
2019-05-09T22:37:16.497Z,98.44
2019-05-09T22:39:49.795Z,98.62
2019-05-09T22:42:23.117Z,98.65
2019-05-09T22:44:56.140Z,98.65
2019-05-09T22:47:29.112Z,98.69
2019-05-09T22:50:02.556Z,98.71
2019-05-09T22:52:35.579Z,98.80
2019-05-09T22:55:08.848Z,98.80
2019-05-09T22:57:42.148Z,98.95
2019-05-09T23:00:15.493Z,99.10
2019-05-09T23:02:48.482Z,99.22
2019-05-09T23:05:21.495Z,99.35
2019-05-09T23:07:54.581Z,99.38
2019-05-09T23:10:27.558Z,99.27
2019-05-09T23:13:00.786Z,99.27
2019-05-09T23:15:33.727Z,99.29
2019-05-09T23:18:07.108Z,99.37
2019-05-09T23:20:40.144Z,99.00
2019-05-09T23:23:13.174Z,99.27
2019-05-09T23:25:46.092Z,99.27
2019-05-09T23:28:19.195Z,99.67
2019-05-09T23:30:52.620Z,99.67
2019-05-09T23:33:25.690Z,99.61
2019-05-09T23:35:58.827Z,99.72
2019-05-09T23:38:31.898Z,99.66
2019-05-09T23:41:04.790Z,99.71
2019-05-09T23:43:37.680Z,99.79
2019-05-09T23:46:10.881Z,99.99
2019-05-09T23:48:43.834Z,100.00
2019-05-09T23:51:17.509Z,100.00
2019-05-09T23:53:50.617Z,100.00
2019-05-09T23:56:23.583Z,100.00
2019-05-09T23:58:56.588Z,100.00
